Moody Air Force Base
KVAD : now visible

Airfield :











YOU CAN JOIN US ON...

 
LOGIN :

Register | Disclaimer

   EN    FR    IT 

 









Legend :    VFR   Marginal VFR   IFR   Intensive IFR   Very Intensive IFR
Visi :
Ceiling :
>= 8 km
>= 3000ft
5 to 8 km
1000 to 3000 ft
1500m to 5 km
500 to 1000 ft
800 to 1500m
200 to 500 ft
< 800m
< 200 ft
Symbols :   Thunderstorms  Fog  Heavy snow  Heavy precipitations  Wind > 20 kt






- Airport Elevation : 233 ft


KVAD - Moody Air Force Base

CURRENT METAR :
  • 062156Z 00000KT 10SM FEW065 27/11 A3004 RMK AO2A SLP173 T02730113 $

EXPIRED METARs :
  • 062056Z AUTO 00000KT 10SM FEW065 28/12 A3007 RMK AO2 SLP183 T02810116 55011 $
  • 061956Z AUTO 00000KT 10SM FEW060 28/12 A3006 RMK AO2 SLP180 T02760120 $

TAF TAF KVAD
Valid from the 06 at 16:00 until the 07 at 22:00 UTC


061600Z 0616/0722 15009KT 9999 SCT040 QNH3006INS
BECMG 0700/0701 18006KT 9999 SKC QNH3005INS
BECMG 0707/0708 20006KT 4800 BR BKN140 QNH3007INS
BECMG 0713/0714 20006KT 9999 NSW BKN120 QNH3007INS TX28/0620Z TN17/0710Z



MET'MAP, your aeronautical weather chart ! - Copyright ORBIFLY December 2007 - Disclaimer

ORBIFLY MET'MAP TEAM :

Programming & Development : Alexandra Zaïnal
Concept & original design : Baudouin d'Aumeries
Assistance for programming : Marc-Olivier Méhu
Technical & hardware support : Manuel Goepfert

Contact : metmap@orbifly.com




SOURCES & CREDITS :

   NOAA       Earth
Advisory